createdAt,value
2016-09-17T00:00:30.769Z,950.6
2016-09-17T00:01:30.764Z,950.62
2016-09-17T00:02:30.763Z,950.6
2016-09-17T00:03:30.767Z,950.64
2016-09-17T00:04:30.759Z,950.62
2016-09-17T00:05:30.900Z,950.62
2016-09-17T00:06:30.746Z,950.63
2016-09-17T00:07:30.745Z,950.64
2016-09-17T00:08:30.743Z,950.61
2016-09-17T00:09:30.739Z,950.64
2016-09-17T00:10:30.735Z,950.63
2016-09-17T00:11:30.735Z,950.62
2016-09-17T00:12:30.723Z,950.63
2016-09-17T00:13:30.721Z,950.6
2016-09-17T00:14:30.719Z,950.61
2016-09-17T00:15:30.714Z,950.61
2016-09-17T00:16:30.711Z,950.59
2016-09-17T00:17:30.710Z,950.61
2016-09-17T00:18:30.721Z,950.55
2016-09-17T00:19:30.697Z,950.56
2016-09-17T00:20:30.704Z,950.5
2016-09-17T00:21:30.699Z,950.48
2016-09-17T00:22:30.686Z,950.43
2016-09-17T00:23:30.720Z,950.44
2016-09-17T00:24:30.687Z,950.47
2016-09-17T00:25:30.675Z,950.44
2016-09-17T00:26:30.679Z,950.41
2016-09-17T00:27:30.679Z,950.43
2016-09-17T00:28:30.667Z,950.38
2016-09-17T00:29:30.662Z,950.37
2016-09-17T00:30:30.657Z,950.34
2016-09-17T00:31:30.659Z,950.33
2016-09-17T00:32:30.651Z,950.32
2016-09-17T00:33:30.652Z,950.31
2016-09-17T00:34:30.651Z,950.28
2016-09-17T00:35:30.638Z,950.3
2016-09-17T00:36:30.645Z,950.3
2016-09-17T00:37:30.641Z,950.31
2016-09-17T00:38:30.628Z,950.3
2016-09-17T00:39:30.625Z,950.31
2016-09-17T00:40:30.625Z,950.32
2016-09-17T00:41:30.619Z,950.27
2016-09-17T00:42:30.623Z,950.27
2016-09-17T00:43:30.609Z,950.3
2016-09-17T00:44:30.624Z,950.25
2016-09-17T00:45:30.605Z,950.32
2016-09-17T00:46:30.605Z,950.33
2016-09-17T00:47:30.597Z,950.36
2016-09-17T00:48:30.592Z,950.38
2016-09-17T00:49:30.651Z,950.4
2016-09-17T00:50:30.640Z,950.4
2016-09-17T00:51:30.635Z,950.39
2016-09-17T00:52:30.578Z,950.38
2016-09-17T00:53:30.572Z,950.39
2016-09-17T00:54:30.571Z,950.39
2016-09-17T00:55:30.573Z,950.36
2016-09-17T00:56:30.565Z,950.38
2016-09-17T00:57:30.557Z,950.38
2016-09-17T00:58:30.557Z,950.4
2016-09-17T00:59:30.548Z,950.41
2016-09-17T01:00:30.545Z,950.4
2016-09-17T01:01:30.544Z,950.4
2016-09-17T01:02:30.538Z,950.37
2016-09-17T01:03:30.537Z,950.35
2016-09-17T01:04:30.539Z,950.37
2016-09-17T01:05:30.541Z,950.37
2016-09-17T01:06:30.531Z,950.33
2016-09-17T01:07:30.527Z,950.31
2016-09-17T01:08:30.525Z,950.32
2016-09-17T01:09:30.512Z,950.28
2016-09-17T01:10:30.512Z,950.28
2016-09-17T01:11:30.516Z,950.24
2016-09-17T01:12:30.506Z,950.27
2016-09-17T01:13:30.502Z,950.2
2016-09-17T01:14:30.504Z,950.19
2016-09-17T01:15:30.492Z,950.23
2016-09-17T01:16:30.494Z,950.23
2016-09-17T01:17:30.484Z,950.22
2016-09-17T01:18:30.490Z,950.21
2016-09-17T01:19:30.476Z,950.25
2016-09-17T01:20:30.483Z,950.2
2016-09-17T01:21:30.471Z,950.23
2016-09-17T01:22:30.466Z,950.21
2016-09-17T01:23:30.471Z,950.23
2016-09-17T01:24:30.468Z,950.21
2016-09-17T01:25:30.455Z,950.22
2016-09-17T01:26:30.456Z,950.21
2016-09-17T01:27:30.450Z,950.22
2016-09-17T01:28:30.450Z,950.2
2016-09-17T01:29:30.440Z,950.21
2016-09-17T01:30:30.443Z,950.19
2016-09-17T01:31:30.437Z,950.17
2016-09-17T01:32:30.438Z,950.13
2016-09-17T01:33:30.427Z,950.09
2016-09-17T01:34:30.421Z,950.08
2016-09-17T01:35:30.418Z,950.04
2016-09-17T01:36:30.420Z,950.03
2016-09-17T01:37:30.415Z,950.02
2016-09-17T01:38:30.409Z,950.05
2016-09-17T01:39:30.401Z,950.04
2016-09-17T01:40:30.408Z,950.01
2016-09-17T01:41:30.398Z,950.05
2016-09-17T01:42:30.392Z,950.05
2016-09-17T01:43:30.387Z,950.05
2016-09-17T01:44:30.389Z,950.06
2016-09-17T01:45:30.380Z,950.05
2016-09-17T01:46:30.379Z,950.06
2016-09-17T01:47:30.374Z,950.07
2016-09-17T01:48:30.378Z,950.09
2016-09-17T01:49:30.363Z,950.05
2016-09-17T01:50:30.367Z,950.07
2016-09-17T01:51:30.358Z,950.05
2016-09-17T01:52:30.353Z,950.07
2016-09-17T01:53:30.349Z,950.06
2016-09-17T01:54:30.344Z,950.06
2016-09-17T01:55:30.340Z,950.07
2016-09-17T01:56:30.338Z,950.08
2016-09-17T01:57:30.332Z,950.06
2016-09-17T01:58:30.327Z,950.07
2016-09-17T01:59:30.330Z,950.01
2016-09-17T02:00:30.329Z,950.01
2016-09-17T02:01:30.319Z,949.98
2016-09-17T02:02:30.314Z,949.95
2016-09-17T02:03:30.310Z,949.95
2016-09-17T02:04:30.315Z,949.95
2016-09-17T02:05:30.304Z,949.91
2016-09-17T02:06:30.298Z,949.95
2016-09-17T02:07:30.298Z,949.92
2016-09-17T02:08:30.292Z,949.93
2016-09-17T02:09:30.303Z,949.96
2016-09-17T02:10:30.289Z,949.94
2016-09-17T02:11:30.286Z,949.97
2016-09-17T02:12:30.276Z,950
2016-09-17T02:13:30.267Z,949.99
2016-09-17T02:14:30.271Z,949.98
2016-09-17T02:15:30.259Z,950
2016-09-17T02:16:30.258Z,950.02
2016-09-17T02:17:30.255Z,950.03
2016-09-17T02:18:30.251Z,950.03
2016-09-17T02:19:30.247Z,950.05
2016-09-17T02:20:30.240Z,950.06
2016-09-17T02:21:30.237Z,950.03
2016-09-17T02:22:30.239Z,950.01
2016-09-17T02:23:30.229Z,950.02
2016-09-17T02:24:30.223Z,949.99
2016-09-17T02:25:30.217Z,949.92
2016-09-17T02:26:30.225Z,949.95
2016-09-17T02:27:30.227Z,949.94
2016-09-17T02:28:30.209Z,949.94
2016-09-17T02:29:30.207Z,949.9
2016-09-17T02:30:30.201Z,949.93
2016-09-17T02:31:30.196Z,950
2016-09-17T02:32:30.192Z,949.95
2016-09-17T02:33:30.186Z,949.93
2016-09-17T02:34:30.181Z,949.95
2016-09-17T02:35:30.180Z,949.93
2016-09-17T02:36:30.175Z,949.95
2016-09-17T02:37:30.170Z,949.9
2016-09-17T02:38:30.370Z,949.89
2016-09-17T02:39:30.161Z,949.89
2016-09-17T02:40:30.158Z,949.89
2016-09-17T02:41:30.156Z,949.9
2016-09-17T02:42:30.159Z,949.86
2016-09-17T02:43:30.145Z,949.85
2016-09-17T02:44:30.144Z,949.85
2016-09-17T02:45:30.141Z,949.81
2016-09-17T02:46:30.131Z,949.83
2016-09-17T02:47:30.135Z,949.83
2016-09-17T02:48:30.122Z,949.77
2016-09-17T02:49:30.120Z,949.81
2016-09-17T02:50:30.114Z,949.81
2016-09-17T02:51:30.140Z,949.81
2016-09-17T02:52:30.106Z,949.76
2016-09-17T02:53:30.100Z,949.79
2016-09-17T02:54:30.103Z,949.76
2016-09-17T02:55:30.091Z,949.8
2016-09-17T02:56:30.088Z,949.81
2016-09-17T02:57:30.083Z,949.78
2016-09-17T02:58:30.080Z,949.75
2016-09-17T02:59:30.074Z,949.82
2016-09-17T03:00:30.076Z,949.8
2016-09-17T03:01:30.069Z,949.8
2016-09-17T03:02:30.063Z,949.79
2016-09-17T03:03:30.057Z,949.81
2016-09-17T03:04:30.052Z,949.81
2016-09-17T03:05:30.058Z,949.83
2016-09-17T03:06:30.046Z,949.82
2016-09-17T03:07:30.041Z,949.84
2016-09-17T03:08:30.038Z,949.84
2016-09-17T03:09:30.031Z,949.84
2016-09-17T03:10:30.033Z,949.82
2016-09-17T03:11:30.026Z,949.85
2016-09-17T03:12:30.018Z,949.79
2016-09-17T03:13:30.022Z,949.8
2016-09-17T03:14:30.010Z,949.82
2016-09-17T03:15:30.007Z,949.79
2016-09-17T03:16:30.004Z,949.78
2016-09-17T03:17:29.996Z,949.78
2016-09-17T03:18:29.992Z,949.86
2016-09-17T03:19:29.989Z,949.79
2016-09-17T03:20:29.990Z,949.78
2016-09-17T03:21:29.988Z,949.79
2016-09-17T03:22:29.976Z,949.8
2016-09-17T03:23:29.968Z,949.81
2016-09-17T03:24:29.973Z,949.76
2016-09-17T03:25:29.963Z,949.81
2016-09-17T03:26:29.954Z,949.83
2016-09-17T03:27:29.961Z,949.81
2016-09-17T03:28:29.952Z,949.84
2016-09-17T03:29:29.944Z,949.8
2016-09-17T03:30:29.941Z,949.86
2016-09-17T03:31:29.937Z,949.86
2016-09-17T03:32:29.936Z,949.82
2016-09-17T03:33:29.932Z,949.82
2016-09-17T03:34:29.921Z,949.83
2016-09-17T03:35:29.918Z,949.83
2016-09-17T03:36:29.917Z,949.89
2016-09-17T03:37:29.923Z,949.81
2016-09-17T03:38:29.902Z,949.82
2016-09-17T03:39:29.900Z,949.89
2016-09-17T03:40:29.898Z,949.86
2016-09-17T03:41:29.897Z,949.84
2016-09-17T03:42:29.890Z,949.83
2016-09-17T03:43:29.887Z,949.9
2016-09-17T03:44:29.875Z,949.91
2016-09-17T03:45:29.884Z,949.91
2016-09-17T03:46:29.867Z,949.94
2016-09-17T03:47:29.865Z,949.92
2016-09-17T03:48:29.858Z,949.89
2016-09-17T03:49:29.856Z,949.92
2016-09-17T03:50:29.851Z,949.9
2016-09-17T03:51:29.844Z,949.9
2016-09-17T03:52:29.843Z,949.87
2016-09-17T03:53:29.835Z,949.87
2016-09-17T03:54:29.838Z,949.86
2016-09-17T03:55:29.827Z,949.87
2016-09-17T03:56:29.824Z,949.85
2016-09-17T03:57:29.825Z,949.84
2016-09-17T03:58:29.813Z,949.81
2016-09-17T03:59:29.808Z,949.83
2016-09-17T04:00:29.811Z,949.79
2016-09-17T04:01:29.809Z,949.82
2016-09-17T04:02:29.799Z,949.79
2016-09-17T04:03:29.790Z,949.8
2016-09-17T04:04:29.796Z,949.79
2016-09-17T04:05:29.786Z,949.8
2016-09-17T04:06:29.780Z,949.75
2016-09-17T04:07:29.771Z,949.77
2016-09-17T04:08:29.775Z,949.74
2016-09-17T04:09:29.762Z,949.75
2016-09-17T04:10:29.758Z,949.75
2016-09-17T04:11:29.762Z,949.72
2016-09-17T04:12:29.749Z,949.73
2016-09-17T04:13:29.743Z,949.73
2016-09-17T04:14:29.739Z,949.74
2016-09-17T04:15:29.737Z,949.72
2016-09-17T04:16:29.736Z,949.68
2016-09-17T04:17:29.727Z,949.72
2016-09-17T04:18:29.722Z,949.71
2016-09-17T04:19:29.718Z,949.74
2016-09-17T04:20:29.712Z,949.73
2016-09-17T04:21:29.708Z,949.76
2016-09-17T04:22:29.714Z,949.75
2016-09-17T04:23:29.698Z,949.74
2016-09-17T04:24:29.694Z,949.75
2016-09-17T04:25:29.692Z,949.72
2016-09-17T04:26:29.686Z,949.75
2016-09-17T04:27:29.690Z,949.7
2016-09-17T04:28:29.686Z,949.72
2016-09-17T04:29:29.685Z,949.73
2016-09-17T04:30:29.679Z,949.69
2016-09-17T04:31:29.661Z,949.69
2016-09-17T04:32:29.666Z,949.7
2016-09-17T04:33:29.655Z,949.69
2016-09-17T04:34:29.657Z,949.71
2016-09-17T04:35:29.645Z,949.69
2016-09-17T04:36:29.646Z,949.69
2016-09-17T04:37:29.638Z,949.7
2016-09-17T04:38:29.639Z,949.67
2016-09-17T04:39:29.635Z,949.66
2016-09-17T04:40:29.622Z,949.71
2016-09-17T04:41:29.616Z,949.68
2016-09-17T04:42:29.614Z,949.68
2016-09-17T04:43:29.613Z,949.69
2016-09-17T04:44:29.602Z,949.7
2016-09-17T04:45:29.602Z,949.71
2016-09-17T04:46:29.603Z,949.74
2016-09-17T04:47:29.589Z,949.73
2016-09-17T04:48:29.584Z,949.73
2016-09-17T04:49:29.588Z,949.73
2016-09-17T04:50:29.576Z,949.69
2016-09-17T04:51:29.575Z,949.71
2016-09-17T04:52:29.566Z,949.7
2016-09-17T04:53:29.560Z,949.72
2016-09-17T04:54:29.560Z,949.7
2016-09-17T04:55:29.552Z,949.73
2016-09-17T04:56:29.547Z,949.72
2016-09-17T04:57:29.547Z,949.74
2016-09-17T04:58:29.540Z,949.77
2016-09-17T04:59:29.534Z,949.74
2016-09-17T05:00:29.530Z,949.72
2016-09-17T05:01:29.538Z,949.72
2016-09-17T05:02:29.521Z,949.71
2016-09-17T05:03:29.516Z,949.72
2016-09-17T05:04:29.522Z,949.72
2016-09-17T05:05:29.508Z,949.75
2016-09-17T05:06:29.502Z,949.72
2016-09-17T05:07:29.499Z,949.75
2016-09-17T05:08:29.493Z,949.75
2016-09-17T05:09:29.491Z,949.79
2016-09-17T05:10:29.492Z,949.74
2016-09-17T05:11:29.484Z,949.79
2016-09-17T05:12:29.494Z,949.78
2016-09-17T05:13:29.472Z,949.75
2016-09-17T05:14:29.466Z,949.75
2016-09-17T05:15:29.466Z,949.77
2016-09-17T05:16:29.457Z,949.79
2016-09-17T05:17:29.455Z,949.74
2016-09-17T05:18:29.501Z,949.76
2016-09-17T05:19:29.451Z,949.75
2016-09-17T05:20:29.443Z,949.74
2016-09-17T05:21:29.434Z,949.77
2016-09-17T05:22:29.517Z,949.77
2016-09-17T05:23:29.424Z,949.73
2016-09-17T05:24:29.425Z,949.76
2016-09-17T05:25:29.417Z,949.75
2016-09-17T05:26:29.414Z,949.72
2016-09-17T05:27:29.407Z,949.75
2016-09-17T05:28:29.409Z,949.76
2016-09-17T05:29:29.397Z,949.75
2016-09-17T05:30:29.398Z,949.75
2016-09-17T05:31:29.389Z,949.79
2016-09-17T05:32:29.480Z,949.78
2016-09-17T05:33:29.377Z,949.75
2016-09-17T05:34:29.374Z,949.77
2016-09-17T05:35:29.382Z,949.74
2016-09-17T05:36:29.428Z,949.77
2016-09-17T05:37:29.364Z,949.74
2016-09-17T05:38:29.356Z,949.79
2016-09-17T05:39:29.422Z,949.75
2016-09-17T05:40:29.441Z,949.74
2016-09-17T05:41:29.346Z,949.73
2016-09-17T05:42:29.338Z,949.73
2016-09-17T05:43:29.349Z,949.75
2016-09-17T05:44:29.375Z,949.76
2016-09-17T05:45:29.566Z,949.74
2016-09-17T05:46:29.321Z,949.76
2016-09-17T05:47:29.313Z,949.78
2016-09-17T05:48:29.309Z,949.77
2016-09-17T05:49:29.306Z,949.73
2016-09-17T05:50:29.301Z,949.77
2016-09-17T05:51:29.299Z,949.75
2016-09-17T05:52:29.289Z,949.75
2016-09-17T05:53:29.294Z,949.75
2016-09-17T05:54:29.289Z,949.75
2016-09-17T05:55:29.289Z,949.76
2016-09-17T05:56:29.309Z,949.76
2016-09-17T05:57:29.266Z,949.77
2016-09-17T05:58:29.261Z,949.8
2016-09-17T05:59:29.260Z,949.79
2016-09-17T06:00:29.404Z,949.78
2016-09-17T06:01:29.250Z,949.81
2016-09-17T06:02:29.244Z,949.77
2016-09-17T06:03:29.248Z,949.76
2016-09-17T06:04:29.279Z,949.81
2016-09-17T06:05:29.228Z,949.77
2016-09-17T06:06:29.227Z,949.81
2016-09-17T06:07:29.274Z,949.78
2016-09-17T06:08:29.231Z,949.78
2016-09-17T06:09:29.411Z,949.76
2016-09-17T06:10:29.205Z,949.74
2016-09-17T06:11:29.205Z,949.78
2016-09-17T06:12:29.199Z,949.75
2016-09-17T06:13:29.519Z,949.73
2016-09-17T06:14:29.187Z,949.75
2016-09-17T06:15:29.185Z,949.71
2016-09-17T06:16:29.179Z,949.73
2016-09-17T06:17:29.190Z,949.72
2016-09-17T06:18:29.170Z,949.7
2016-09-17T06:19:29.170Z,949.69
2016-09-17T06:20:29.157Z,949.7
2016-09-17T06:21:29.156Z,949.7
2016-09-17T06:22:29.146Z,949.73
2016-09-17T06:23:29.147Z,949.67
2016-09-17T06:24:29.141Z,949.71
2016-09-17T06:25:29.134Z,949.7
2016-09-17T06:26:29.127Z,949.65
2016-09-17T06:27:29.124Z,949.69
2016-09-17T06:28:29.132Z,949.64
2016-09-17T06:29:29.117Z,949.65
2016-09-17T06:30:29.116Z,949.66
2016-09-17T06:31:29.105Z,949.63
2016-09-17T06:32:29.099Z,949.62
2016-09-17T06:33:29.094Z,949.63
2016-09-17T06:34:29.095Z,949.64
2016-09-17T06:35:29.087Z,949.63
2016-09-17T06:36:29.295Z,949.64
2016-09-17T06:37:29.075Z,949.58
2016-09-17T06:38:29.074Z,949.58
2016-09-17T06:39:29.067Z,949.63
2016-09-17T06:40:29.062Z,949.61
2016-09-17T06:41:29.058Z,949.63
2016-09-17T06:42:29.054Z,949.62
2016-09-17T06:43:29.047Z,949.58
2016-09-17T06:44:29.042Z,949.6
2016-09-17T06:45:29.052Z,949.6
2016-09-17T06:46:29.039Z,949.58
2016-09-17T06:47:29.029Z,949.58
2016-09-17T06:48:29.025Z,949.57
2016-09-17T06:49:29.021Z,949.56
2016-09-17T06:50:29.017Z,949.55
2016-09-17T06:51:29.016Z,949.56
2016-09-17T06:52:29.005Z,949.57
2016-09-17T06:53:29.055Z,949.59
2016-09-17T06:54:28.994Z,949.57
2016-09-17T06:55:28.991Z,949.57
2016-09-17T06:56:28.991Z,949.58
2016-09-17T06:57:28.988Z,949.58
2016-09-17T06:58:28.976Z,949.58
2016-09-17T06:59:28.984Z,949.62
2016-09-17T07:00:28.972Z,949.64
2016-09-17T07:01:28.963Z,949.62
2016-09-17T07:02:28.964Z,949.56
2016-09-17T07:03:28.964Z,949.64
2016-09-17T07:04:28.964Z,949.62
2016-09-17T07:05:28.945Z,949.61
2016-09-17T07:06:28.939Z,949.6
2016-09-17T07:07:28.941Z,949.55
2016-09-17T07:08:28.934Z,949.55
2016-09-17T07:09:28.934Z,949.59
2016-09-17T07:10:28.929Z,949.59
2016-09-17T07:11:28.924Z,949.57
2016-09-17T07:12:28.911Z,949.52
2016-09-17T07:13:28.917Z,949.55
2016-09-17T07:14:28.924Z,949.57
2016-09-17T07:15:28.903Z,949.54
2016-09-17T07:16:28.892Z,949.57
2016-09-17T07:17:28.891Z,949.59
2016-09-17T07:18:28.884Z,949.55
2016-09-17T07:19:28.887Z,949.55
2016-09-17T07:20:28.877Z,949.51
2016-09-17T07:21:28.868Z,949.49
2016-09-17T07:22:28.865Z,949.53
2016-09-17T07:23:28.862Z,949.5
2016-09-17T07:24:28.854Z,949.52
2016-09-17T07:25:28.855Z,949.51
2016-09-17T07:26:28.847Z,949.55
2016-09-17T07:27:28.840Z,949.59
2016-09-17T07:28:28.842Z,949.54
2016-09-17T07:29:28.841Z,949.53
2016-09-17T07:30:28.826Z,949.58
2016-09-17T07:31:28.822Z,949.58
2016-09-17T07:32:28.819Z,949.57
2016-09-17T07:33:28.818Z,949.56
2016-09-17T07:34:28.807Z,949.55
2016-09-17T07:35:28.804Z,949.56
2016-09-17T07:36:28.813Z,949.61
2016-09-17T07:37:28.800Z,949.57
2016-09-17T07:38:28.790Z,949.6
2016-09-17T07:39:28.788Z,949.61
2016-09-17T07:40:28.781Z,949.61
2016-09-17T07:41:28.779Z,949.59
2016-09-17T07:42:28.772Z,949.57
2016-09-17T07:43:28.773Z,949.6
2016-09-17T07:44:28.763Z,949.55
2016-09-17T07:45:28.771Z,949.61
2016-09-17T07:46:28.755Z,949.6
2016-09-17T07:47:28.761Z,949.59
2016-09-17T07:48:28.745Z,949.57
2016-09-17T07:49:28.744Z,949.57
2016-09-17T07:50:28.734Z,949.63
2016-09-17T07:51:28.747Z,949.56
2016-09-17T07:52:28.726Z,949.56
2016-09-17T07:53:28.772Z,949.59
2016-09-17T07:54:28.724Z,949.61
2016-09-17T07:55:28.717Z,949.57
2016-09-17T07:56:28.707Z,949.56
2016-09-17T07:57:28.707Z,949.61
2016-09-17T07:58:28.700Z,949.62
2016-09-17T07:59:28.696Z,949.57
2016-09-17T08:00:28.691Z,949.59
2016-09-17T08:01:28.689Z,949.63
2016-09-17T08:02:28.684Z,949.6
2016-09-17T08:03:28.678Z,949.6
2016-09-17T08:04:28.673Z,949.61
2016-09-17T08:05:28.669Z,949.59
2016-09-17T08:07:28.661Z,949.6
2016-09-17T08:08:28.654Z,949.59
2016-09-17T08:09:28.651Z,949.57
2016-09-17T08:10:28.651Z,949.55
2016-09-17T08:11:28.648Z,949.59
2016-09-17T08:12:28.643Z,949.57
2016-09-17T08:13:28.640Z,949.59
2016-09-17T08:14:28.629Z,949.6
2016-09-17T08:15:28.624Z,949.57
2016-09-17T08:16:28.619Z,949.57
2016-09-17T08:17:28.618Z,949.54
2016-09-17T08:18:28.612Z,949.55
2016-09-17T08:19:28.616Z,949.56
2016-09-17T08:20:28.606Z,949.55
2016-09-17T08:21:28.600Z,949.53
2016-09-17T08:22:28.600Z,949.57
2016-09-17T08:23:28.590Z,949.54
2016-09-17T08:24:28.584Z,949.51
2016-09-17T08:25:28.581Z,949.53
2016-09-17T08:26:28.584Z,949.53
2016-09-17T08:27:28.589Z,949.51
2016-09-17T08:28:28.570Z,949.55
2016-09-17T08:29:28.576Z,949.55
2016-09-17T08:30:28.561Z,949.52
2016-09-17T08:31:28.559Z,949.54
2016-09-17T08:32:28.552Z,949.54
2016-09-17T08:33:28.547Z,949.58
2016-09-17T08:34:28.543Z,949.52
2016-09-17T08:35:28.540Z,949.52
2016-09-17T08:36:28.535Z,949.53
2016-09-17T08:37:28.532Z,949.57
2016-09-17T08:38:28.526Z,949.54
2016-09-17T08:39:28.527Z,949.54
2016-09-17T08:40:28.521Z,949.56
2016-09-17T08:41:28.516Z,949.57
2016-09-17T08:42:28.519Z,949.55
2016-09-17T08:43:28.508Z,949.52
2016-09-17T08:44:28.507Z,949.54
2016-09-17T08:45:28.497Z,949.53
2016-09-17T08:46:28.498Z,949.52
2016-09-17T08:47:28.497Z,949.53
2016-09-17T08:48:28.486Z,949.52
2016-09-17T08:49:28.488Z,949.52
2016-09-17T08:50:28.499Z,949.52
2016-09-17T08:51:28.472Z,949.49
2016-09-17T08:52:28.469Z,949.53
2016-09-17T08:53:28.464Z,949.47
2016-09-17T08:54:28.461Z,949.53
2016-09-17T08:55:28.457Z,949.48
2016-09-17T08:56:28.462Z,949.51
2016-09-17T08:57:28.455Z,949.48
2016-09-17T08:58:28.448Z,949.48
2016-09-17T08:59:28.440Z,949.48
2016-09-17T09:00:28.436Z,949.41
2016-09-17T09:01:28.435Z,949.45
2016-09-17T09:02:28.430Z,949.45
2016-09-17T09:03:28.425Z,949.45
2016-09-17T09:04:28.423Z,949.4
2016-09-17T09:05:28.417Z,949.42
2016-09-17T09:06:28.414Z,949.41
2016-09-17T09:07:28.411Z,949.42
2016-09-17T09:08:28.470Z,949.41
2016-09-17T09:09:28.577Z,949.4
2016-09-17T09:10:28.397Z,949.42
2016-09-17T09:11:28.395Z,949.41
2016-09-17T09:12:28.391Z,949.39
2016-09-17T09:13:28.385Z,949.42
2016-09-17T09:14:28.386Z,949.38
2016-09-17T09:15:28.377Z,949.38
2016-09-17T09:16:28.373Z,949.4
2016-09-17T09:17:28.371Z,949.35
2016-09-17T09:18:28.364Z,949.34
2016-09-17T09:19:28.361Z,949.36
2016-09-17T09:20:28.355Z,949.35
2016-09-17T09:21:28.361Z,949.34
2016-09-17T09:22:28.353Z,949.33
2016-09-17T09:23:28.345Z,949.33
2016-09-17T09:24:28.340Z,949.32
2016-09-17T09:25:28.337Z,949.32
2016-09-17T09:26:28.333Z,949.26
2016-09-17T09:27:28.330Z,949.29
2016-09-17T09:28:28.326Z,949.27
2016-09-17T09:29:28.322Z,949.28
2016-09-17T09:30:28.318Z,949.26
2016-09-17T09:31:28.315Z,949.25
2016-09-17T09:32:28.316Z,949.24
2016-09-17T09:33:28.307Z,949.22
2016-09-17T09:34:28.302Z,949.19
2016-09-17T09:35:28.300Z,949.17
2016-09-17T09:36:28.299Z,949.19
2016-09-17T09:37:28.291Z,949.15
2016-09-17T09:38:28.286Z,949.18
2016-09-17T09:39:28.280Z,949.18
2016-09-17T09:40:28.276Z,949.17
2016-09-17T09:41:28.282Z,949.18
2016-09-17T09:42:28.271Z,949.19
2016-09-17T09:43:28.264Z,949.17
2016-09-17T09:44:28.265Z,949.15
2016-09-17T09:45:28.260Z,949.11
2016-09-17T09:46:28.257Z,949.13
2016-09-17T09:47:28.248Z,949.07
2016-09-17T09:48:28.251Z,949.12
2016-09-17T09:49:28.240Z,949.06
2016-09-17T09:50:28.242Z,949.07
2016-09-17T09:51:28.239Z,949.09
2016-09-17T09:52:28.229Z,949.06
2016-09-17T09:53:28.278Z,949.04
2016-09-17T09:54:28.223Z,949.05
2016-09-17T09:55:28.235Z,949.04
2016-09-17T09:56:28.219Z,949.03
2016-09-17T09:57:28.211Z,949.02
2016-09-17T09:58:28.211Z,948.99
2016-09-17T09:59:28.206Z,948.97
2016-09-17T10:00:28.202Z,948.97
2016-09-17T10:01:28.195Z,948.99
2016-09-17T10:02:28.190Z,948.97
2016-09-17T10:03:28.200Z,948.97
2016-09-17T10:04:28.181Z,948.95
2016-09-17T10:05:28.183Z,948.96
2016-09-17T10:06:28.175Z,948.93
2016-09-17T10:07:28.170Z,948.96
2016-09-17T10:08:28.177Z,948.98
2016-09-17T10:09:28.161Z,948.92
2016-09-17T10:10:28.159Z,948.99
2016-09-17T10:11:28.154Z,948.96
2016-09-17T10:12:28.150Z,948.94
2016-09-17T10:13:28.147Z,948.98
2016-09-17T10:14:28.143Z,948.92
2016-09-17T10:15:28.136Z,948.95
2016-09-17T10:16:28.136Z,948.93
2016-09-17T10:17:28.131Z,948.93
2016-09-17T10:18:28.124Z,948.94
2016-09-17T10:19:28.127Z,948.88
2016-09-17T10:20:28.114Z,948.92
2016-09-17T10:21:28.109Z,948.9
2016-09-17T10:22:28.107Z,948.86
2016-09-17T10:23:28.100Z,948.87
2016-09-17T10:24:28.098Z,948.89
2016-09-17T10:25:28.092Z,948.86
2016-09-17T10:26:28.096Z,948.84
2016-09-17T10:27:28.083Z,948.81
2016-09-17T10:28:28.099Z,948.84
2016-09-17T10:29:28.076Z,948.82
2016-09-17T10:30:28.069Z,948.85
2016-09-17T10:31:28.074Z,948.88
2016-09-17T10:32:28.062Z,948.87
2016-09-17T10:33:28.060Z,948.86
2016-09-17T10:34:28.055Z,948.83
2016-09-17T10:35:28.049Z,948.84
2016-09-17T10:36:28.045Z,948.8
2016-09-17T10:37:28.044Z,948.84
2016-09-17T10:38:28.038Z,948.83
2016-09-17T10:39:28.032Z,948.89
2016-09-17T10:40:28.031Z,948.87
2016-09-17T10:41:28.022Z,948.93
2016-09-17T10:42:28.022Z,948.9
2016-09-17T10:43:28.015Z,948.93
2016-09-17T10:44:28.009Z,948.92
2016-09-17T10:45:28.011Z,948.9
2016-09-17T10:46:28.006Z,948.93
2016-09-17T10:47:27.997Z,948.9
2016-09-17T10:48:27.993Z,948.98
2016-09-17T10:49:27.996Z,948.96
2016-09-17T10:50:27.991Z,948.93
2016-09-17T10:51:27.976Z,948.99
2016-09-17T10:52:27.976Z,948.94
2016-09-17T10:53:27.968Z,948.98
2016-09-17T10:54:27.964Z,948.98
2016-09-17T10:55:27.956Z,949
2016-09-17T10:56:27.957Z,948.97
2016-09-17T10:57:27.951Z,948.97
2016-09-17T10:58:27.947Z,948.96
2016-09-17T10:59:27.940Z,948.95
2016-09-17T11:00:27.937Z,948.94
2016-09-17T11:01:27.942Z,948.92
2016-09-17T11:02:27.927Z,949.01
2016-09-17T11:03:27.922Z,948.98
2016-09-17T11:04:27.916Z,948.96
2016-09-17T11:05:27.915Z,948.96
2016-09-17T11:06:27.909Z,948.98
2016-09-17T11:07:27.903Z,948.97
2016-09-17T11:08:27.899Z,949.02
2016-09-17T11:09:27.894Z,949.02
2016-09-17T11:10:27.887Z,948.98
2016-09-17T11:11:27.884Z,948.99
2016-09-17T11:12:27.881Z,948.98
2016-09-17T11:13:27.877Z,948.96
2016-09-17T11:14:27.870Z,948.98
2016-09-17T11:15:27.889Z,948.98
2016-09-17T11:16:27.862Z,948.98
2016-09-17T11:17:27.855Z,949.01
2016-09-17T11:18:27.861Z,948.98
2016-09-17T11:19:27.844Z,949.03
2016-09-17T11:20:27.848Z,948.97
2016-09-17T11:21:27.841Z,949
2016-09-17T11:22:27.835Z,948.98
2016-09-17T11:23:27.828Z,949
2016-09-17T11:24:27.823Z,949.02
2016-09-17T11:25:27.821Z,949.02
2016-09-17T11:26:27.813Z,949
2016-09-17T11:27:27.808Z,949
2016-09-17T11:28:27.802Z,949.02
2016-09-17T11:29:27.797Z,949.02
2016-09-17T11:30:27.800Z,949.01
2016-09-17T11:31:27.795Z,949.01
2016-09-17T11:32:27.784Z,949.01
2016-09-17T11:33:27.799Z,948.99
2016-09-17T11:34:27.806Z,949.06
2016-09-17T11:35:27.772Z,949.07
2016-09-17T11:36:27.763Z,949.05
2016-09-17T11:37:27.759Z,949.04
2016-09-17T11:38:27.759Z,949.05
2016-09-17T11:39:27.749Z,949.03
2016-09-17T11:40:27.746Z,949.08
2016-09-17T11:41:27.746Z,949.08
2016-09-17T11:42:27.733Z,949.07
2016-09-17T11:43:27.729Z,949.08
2016-09-17T11:44:27.724Z,949.08
2016-09-17T11:45:27.720Z,949.11
2016-09-17T11:46:27.717Z,949.12
2016-09-17T11:47:27.709Z,949.08
2016-09-17T11:48:27.708Z,949.07
2016-09-17T11:49:27.703Z,949.07
2016-09-17T11:50:27.696Z,949.07
2016-09-17T11:51:27.692Z,949.04
2016-09-17T11:52:27.689Z,949.06
2016-09-17T11:53:27.678Z,949.1
2016-09-17T11:54:27.679Z,949.06
2016-09-17T11:55:27.674Z,949.07
2016-09-17T11:56:27.666Z,949.08
2016-09-17T11:57:27.661Z,949.03
2016-09-17T11:58:27.658Z,949.05
2016-09-17T11:59:27.659Z,949.02
2016-09-17T12:00:27.647Z,949.04
2016-09-17T12:01:27.639Z,949.03
2016-09-17T12:02:27.643Z,949.03
2016-09-17T12:03:27.631Z,949.06
2016-09-17T12:04:27.624Z,949.03
2016-09-17T12:05:27.627Z,949.01
2016-09-17T12:06:27.616Z,949.02
2016-09-17T12:07:27.613Z,949.01
2016-09-17T12:08:27.604Z,949.05
2016-09-17T12:09:27.599Z,949.08
2016-09-17T12:10:27.594Z,949.07
2016-09-17T12:11:27.590Z,949.02
2016-09-17T12:12:27.586Z,949.01
2016-09-17T12:13:27.591Z,949.05
2016-09-17T12:14:27.575Z,949.01
2016-09-17T12:15:27.577Z,949.01
2016-09-17T12:16:27.565Z,949.02
2016-09-17T12:17:27.563Z,949.03
2016-09-17T12:18:27.555Z,949.03
2016-09-17T12:19:27.552Z,949
2016-09-17T12:20:27.545Z,949.02
2016-09-17T12:21:27.540Z,949
2016-09-17T12:22:27.535Z,948.96
2016-09-17T12:23:27.529Z,948.94
2016-09-17T12:24:27.531Z,948.91
2016-09-17T12:25:27.520Z,948.95
2016-09-17T12:26:27.512Z,948.88
2016-09-17T12:27:27.510Z,948.92
2016-09-17T12:28:27.592Z,948.94
2016-09-17T12:29:27.503Z,948.97
2016-09-17T12:30:27.492Z,948.91
2016-09-17T12:31:27.485Z,948.96
2016-09-17T12:32:27.491Z,948.97